Time;durP1;ratioP1;P1;durP2;ratioP2;P2;SDS_P1;SDS_P2;PMS_P1;PMS_P2;Temp;Humidity;BMP_temperature;BMP_pressure;BME280_temperature;BME280_humidity;BME280_pressure;Samples;Min_cycle;Max_cycle;Signal;HPM_P1;HPM_P2
2024/03/17 00:00:21;;;;;;;;;3.50;3.00;;;;;-143.90;100.00;75860.72;4875297;28;104079;-71
2024/03/17 00:02:47;;;;;;;;;2.75;2.50;;;;;-143.90;100.00;75860.72;4894948;28;101791;-73
2024/03/17 00:05:14;;;;;;;;;4.50;3.25;;;;;-143.90;100.00;75854.53;4863131;28;103069;-71
2024/03/17 00:07:40;;;;;;;;;5.75;3.00;;;;;-143.90;100.00;75856.59;4882167;28;101937;-72
2024/03/17 00:10:10;;;;;;;;;6.25;3.00;;;;;-143.90;100.00;75866.94;4875512;28;104321;-72
2024/03/17 00:12:36;;;;;;;;;5.00;3.00;;;;;-143.90;100.00;75866.94;4878827;28;101655;-72
2024/03/17 00:15:03;;;;;;;;;2.00;2.00;;;;;-143.90;100.00;75871.06;4869788;28;101653;-73
2024/03/17 00:17:29;;;;;;;;;3.75;3.25;;;;;-143.90;100.00;75871.06;4882892;28;102715;-72
2024/03/17 00:19:54;;;;;;;;;6.00;4.00;;;;;-143.90;100.00;75881.41;4878668;28;103891;-73
2024/03/17 00:22:20;;;;;;;;;5.50;3.75;;;;;-143.90;100.00;75877.25;4882133;28;101975;-73
2024/03/17 00:24:46;;;;;;;;;6.50;6.00;;;;;-143.90;100.00;75875.19;4880257;28;102270;-72
2024/03/17 00:27:11;;;;;;;;;3.75;3.75;;;;;-143.90;100.00;75881.41;4858847;28;102203;-72
2024/03/17 00:29:38;;;;;;;;;5.00;4.00;;;;;-143.90;100.00;75877.25;4861926;28;104097;-71
2024/03/17 00:32:05;;;;;;;;;6.50;6.50;;;;;-143.90;100.00;75891.75;4879455;28;101843;-71
2024/03/17 00:34:30;;;;;;;;;7.00;7.00;;;;;-143.90;100.00;75889.66;4876685;28;101850;-72
2024/03/17 00:36:56;;;;;;;;;4.75;2.50;;;;;-143.90;100.00;75900.00;4866328;28;101752;-72
2024/03/17 00:39:22;;;;;;;;;8.00;7.00;;;;;-143.90;100.00;75918.63;4539591;28;10000167;-72
2024/03/17 00:41:48;;;;;;;;;7.25;6.75;;;;;-143.90;100.00;75962.03;4879601;28;102149;-73
2024/03/17 00:44:15;;;;;;;;;20.25;18.75;;;;;-143.90;100.00;76009.59;4857516;28;101609;-70
2024/03/17 00:46:42;;;;;;;;;32.00;29.25;;;;;-143.90;100.00;76044.75;4877393;28;101537;-71
2024/03/17 00:49:10;;;;;;;;;36.75;31.25;;;;;-143.90;100.00;76057.16;4853450;28;103291;-71
2024/03/17 00:51:36;;;;;;;;;55.25;40.25;;;;;-143.90;100.00;76096.44;4878303;28;102757;-71
2024/03/17 00:54:02;;;;;;;;;47.50;39.00;;;;;-143.90;100.00;76090.25;4878607;28;102174;-71
2024/03/17 00:56:27;;;;;;;;;30.50;25.50;;;;;-143.90;100.00;76113.00;4878252;28;102383;-71
2024/03/17 00:58:53;;;;;;;;;20.00;15.75;;;;;-143.90;100.00;76115.06;4874087;28;101941;-72
2024/03/17 01:01:19;;;;;;;;;13.00;12.00;;;;;-143.90;100.00;76121.28;4874213;28;104074;-72
2024/03/17 01:03:46;;;;;;;;;14.00;13.00;;;;;-143.90;100.00;76125.41;4879238;28;101959;-71
2024/03/17 01:06:11;;;;;;;;;21.25;13.75;;;;;-143.90;100.00;76129.53;4876451;28;102150;-72
2024/03/17 01:08:37;;;;;;;;;9.50;8.00;;;;;-143.90;100.00;76133.69;4866294;28;104401;-72
2024/03/17 01:11:03;;;;;;;;;13.25;10.25;;;;;-143.90;100.00;76146.09;4874825;28;104551;-71
2024/03/17 01:13:29;;;;;;;;;11.75;11.25;;;;;-143.90;100.00;76141.94;4872588;28;104050;-71
2024/03/17 01:15:55;;;;;;;;;13.00;10.50;;;;;-143.90;100.00;76148.16;4876325;28;101932;-72
2024/03/17 01:18:20;;;;;;;;;13.25;11.00;;;;;-143.90;100.00;76135.75;4851762;28;104630;-72
2024/03/17 01:20:46;;;;;;;;;16.75;13.25;;;;;-143.90;100.00;76139.88;4878848;28;104451;-72
2024/03/17 01:23:13;;;;;;;;;13.00;11.75;;;;;-143.90;100.00;76144.00;4869785;28;101787;-72
2024/03/17 01:25:39;;;;;;;;;14.25;8.00;;;;;-143.90;100.00;76152.28;4862473;28;101582;-71
2024/03/17 01:28:05;;;;;;;;;13.25;12.75;;;;;-143.90;100.00;76156.41;4879163;28;101797;-71
2024/03/17 01:30:32;;;;;;;;;11.00;10.50;;;;;-143.90;100.00;76150.22;4881658;28;104015;-72
2024/03/17 01:33:01;;;;;;;;;12.75;10.00;;;;;-143.90;100.00;76144.00;4876281;28;102307;-71
2024/03/17 01:35:27;;;;;;;;;5.50;3.50;;;;;-143.90;100.00;76148.16;4879723;28;102048;-72
2024/03/17 01:37:53;;;;;;;;;6.25;5.75;;;;;-143.90;100.00;76141.94;4865898;28;102011;-73
2024/03/17 01:40:19;;;;;;;;;4.00;3.00;;;;;-143.90;100.00;76144.00;4858724;28;102613;-73
2024/03/17 01:42:44;;;;;;;;;3.75;3.00;;;;;-143.90;100.00;76144.00;4879364;28;101641;-72
2024/03/17 01:45:16;;;;;;;;;5.75;5.00;;;;;-143.90;100.00;76141.94;4859521;28;102049;-71
2024/03/17 01:47:42;;;;;;;;;4.00;2.75;;;;;-143.90;100.00;76141.94;4892564;28;101936;-71
2024/03/17 01:50:08;;;;;;;;;5.25;4.50;;;;;-143.90;100.00;76144.00;4878466;28;104155;-72
2024/03/17 01:52:34;;;;;;;;;6.25;6.25;;;;;-143.90;100.00;76156.41;4876155;28;102353;-71
2024/03/17 01:55:02;;;;;;;;;5.50;5.25;;;;;-143.90;100.00;76160.56;4890820;28;101454;-72
2024/03/17 01:57:29;;;;;;;;;7.75;6.00;;;;;-143.90;100.00;76162.63;4881404;28;101891;-72
2024/03/17 01:59:55;;;;;;;;;7.00;6.00;;;;;-143.90;100.00;76164.69;4879457;28;104066;-72
2024/03/17 02:02:21;;;;;;;;;6.50;3.00;;;;;-143.90;100.00;76177.09;4881080;28;101799;-72
2024/03/17 02:04:47;;;;;;;;;4.25;3.75;;;;;-143.90;100.00;76177.09;4882718;28;101939;-71
2024/03/17 02:07:15;;;;;;;;;5.50;5.00;;;;;-143.90;100.00;76172.97;4886199;28;102185;-71
2024/03/17 02:09:43;;;;;;;;;5.75;3.00;;;;;-143.90;100.00;76185.38;4878417;28;104180;-73
2024/03/17 02:12:09;;;;;;;;;6.00;5.00;;;;;-143.90;100.00;76189.50;4880568;28;102668;-72
2024/03/17 02:14:35;;;;;;;;;5.75;4.50;;;;;-143.90;100.00;76185.38;4863181;28;103125;-73
2024/03/17 02:17:02;;;;;;;;;7.75;7.00;;;;;-143.90;100.00;76179.16;4871976;28;102685;-72
2024/03/17 02:19:28;;;;;;;;;9.50;7.00;;;;;-143.90;100.00;76185.38;4890456;28;104264;-72
2024/03/17 02:21:53;;;;;;;;;11.00;7.50;;;;;-143.90;100.00;76177.09;4863514;28;101825;-72
2024/03/17 02:24:19;;;;;;;;;7.25;7.00;;;;;-143.90;100.00;76166.75;4878751;28;101683;-73
2024/03/17 02:26:45;;;;;;;;;8.25;6.00;;;;;-143.90;100.00;76160.56;4884599;28;101635;-72
2024/03/17 02:29:10;;;;;;;;;8.75;7.75;;;;;-143.90;100.00;76172.97;4878013;28;102603;-71
2024/03/17 02:31:36;;;;;;;;;12.50;10.00;;;;;-143.90;100.00;76177.09;4869673;28;102210;-71
2024/03/17 02:34:02;;;;;;;;;12.25;8.00;;;;;-143.90;100.00;76175.03;4878512;28;103003;-71
2024/03/17 02:36:27;;;;;;;;;10.75;8.75;;;;;-143.90;100.00;76168.81;4878769;28;101600;-72
2024/03/17 02:41:41;;;;;;;;;11.00;10.00;;;;;-143.90;100.00;76168.81;4877962;28;102944;-71
2024/03/17 02:44:07;;;;;;;;;9.00;7.00;;;;;-143.90;100.00;76164.69;4879262;28;101984;-73
2024/03/17 02:46:34;;;;;;;;;9.50;7.00;;;;;-143.90;100.00;76162.63;4881022;28;102022;-73
2024/03/17 02:49:01;;;;;;;;;6.25;5.25;;;;;-143.90;100.00;76181.25;4871933;28;103948;-71
2024/03/17 02:51:27;;;;;;;;;7.00;7.00;;;;;-143.90;100.00;76164.69;4877544;28;103814;-72
2024/03/17 02:53:53;;;;;;;;;10.50;7.75;;;;;-143.90;100.00;76175.03;4877239;28;101808;-72
2024/03/17 02:56:19;;;;;;;;;8.00;5.00;;;;;-143.90;100.00;76172.97;4880436;28;102386;-72
2024/03/17 02:58:46;;;;;;;;;9.50;8.50;;;;;-143.90;100.00;76185.38;4878664;28;103998;-72
2024/03/17 03:01:12;;;;;;;;;8.00;7.25;;;;;-143.90;100.00;76187.44;4874163;28;101866;-71
2024/03/17 03:03:38;;;;;;;;;6.25;5.00;;;;;-143.90;100.00;76189.50;4875622;28;102755;-72
2024/03/17 03:06:08;;;;;;;;;12.75;7.00;;;;;-143.90;100.00;76189.50;4865164;28;101599;-72
2024/03/17 03:08:38;;;;;;;;;9.00;7.00;;;;;-143.90;100.00;76185.38;4881904;28;104198;-72
2024/03/17 03:11:06;;;;;;;;;13.00;11.00;;;;;-143.90;100.00;76218.47;4826651;28;102122;-72
2024/03/17 03:13:32;;;;;;;;;14.75;13.25;;;;;-143.90;100.00;76203.97;4849915;28;102090;-71
2024/03/17 03:15:57;;;;;;;;;16.00;14.50;;;;;-143.90;100.00;76212.25;4897361;28;104351;-72
2024/03/17 03:18:23;;;;;;;;;23.75;18.00;;;;;-143.90;100.00;76206.06;4876139;28;103304;-72
2024/03/17 03:20:55;;;;;;;;;17.75;16.75;;;;;-143.90;100.00;76201.91;4860618;28;101662;-72
2024/03/17 03:23:21;;;;;;;;;36.50;32.50;;;;;-143.90;100.00;76224.66;4862124;28;101770;-72
2024/03/17 03:25:47;;;;;;;;;22.50;20.75;;;;;-143.90;100.00;76218.47;4879552;28;103535;-73
2024/03/17 03:28:13;;;;;;;;;33.75;28.75;;;;;-143.90;100.00;76237.06;4860931;28;108316;-72
2024/03/17 03:30:39;;;;;;;;;21.75;19.50;;;;;-143.90;100.00;76255.69;4881506;28;102007;-71
2024/03/17 03:33:05;;;;;;;;;17.75;15.25;;;;;-143.90;100.00;76247.41;4886795;28;101551;-72
2024/03/17 03:35:31;;;;;;;;;18.00;13.00;;;;;-143.90;100.00;76274.28;4877549;28;102405;-72
2024/03/17 03:37:58;;;;;;;;;11.25;9.00;;;;;-143.90;100.00;76284.63;4882922;28;102524;-73
2024/03/17 03:40:27;;;;;;;;;10.25;7.50;;;;;-143.90;100.00;76278.44;4897622;28;101688;-73
2024/03/17 03:42:53;;;;;;;;;9.50;7.75;;;;;-143.90;100.00;76294.97;4866862;28;103601;-72
2024/03/17 03:45:20;;;;;;;;;12.00;8.00;;;;;-143.90;100.00;76305.31;4874131;28;103617;-73
2024/03/17 03:47:46;;;;;;;;;11.25;11.00;;;;;-143.90;100.00;76305.31;4883064;28;104161;-72
2024/03/17 03:50:14;;;;;;;;;10.00;10.00;;;;;-143.90;100.00;76305.31;4875566;28;102059;-71
2024/03/17 03:52:43;;;;;;;;;8.00;6.00;;;;;-143.90;100.00;76317.72;4878235;28;101844;-72
2024/03/17 03:55:15;;;;;;;;;10.00;7.50;;;;;-143.90;100.00;76330.13;4880210;28;101548;-70
2024/03/17 03:57:41;;;;;;;;;8.25;6.50;;;;;-143.90;100.00;76350.81;4873260;28;104026;-72
2024/03/17 04:00:14;;;;;;;;;5.50;5.00;;;;;-143.90;100.00;76340.47;4862639;28;103341;-72
2024/03/17 04:02:40;;;;;;;;;5.75;5.00;;;;;-143.90;100.00;76363.22;4872664;28;101742;-74
2024/03/17 04:05:06;;;;;;;;;7.25;6.00;;;;;-143.90;100.00;76373.56;4860348;28;101683;-73
2024/03/17 04:07:32;;;;;;;;;6.75;5.50;;;;;-143.90;100.00;76379.75;4872614;28;104601;-72
2024/03/17 04:09:58;;;;;;;;;9.75;9.00;;;;;-143.90;100.00;76375.63;4875942;28;105109;-72
2024/03/17 04:12:27;;;;;;;;;15.00;10.25;;;;;-143.90;100.00;76383.91;4878604;28;102958;-72
2024/03/17 04:14:55;;;;;;;;;12.00;10.25;;;;;-143.90;100.00;76388.03;4876674;28;102243;-73
2024/03/17 04:17:21;;;;;;;;;12.50;12.00;;;;;-143.90;100.00;76400.44;4874429;28;104196;-72
2024/03/17 04:19:53;;;;;;;;;5.25;5.00;;;;;-143.90;100.00;76398.38;4882711;28;101946;-72
2024/03/17 04:22:21;;;;;;;;;19.50;18.25;;;;;-143.90;100.00;76417.00;4890747;28;101704;-72
2024/03/17 04:24:53;;;;;;;;;19.00;15.25;;;;;-143.90;100.00;76427.31;4885755;28;101887;-72
2024/03/17 04:27:25;;;;;;;;;27.75;19.00;;;;;-143.90;100.00;76445.94;4881873;28;108664;-72
2024/03/17 04:29:57;;;;;;;;;18.75;15.00;;;;;-143.90;100.00;76456.28;4886738;28;103412;-73
2024/03/17 04:32:23;;;;;;;;;19.75;18.25;;;;;-143.90;100.00;76452.16;4878615;28;103579;-73
2024/03/17 04:34:49;;;;;;;;;19.25;18.75;;;;;-143.90;100.00;76458.34;4864522;28;101912;-73
2024/03/17 04:37:16;;;;;;;;;19.25;16.50;;;;;-143.90;100.00;76479.03;4868219;28;104013;-72
2024/03/17 04:39:46;;;;;;;;;20.75;17.50;;;;;-143.90;100.00;76481.09;4879798;28;102576;-73
2024/03/17 04:42:14;;;;;;;;;26.50;23.50;;;;;-143.90;100.00;76487.31;4873620;28;101829;-73
2024/03/17 04:44:40;;;;;;;;;27.50;19.25;;;;;-143.90;100.00;76489.38;4874199;28;103305;-73
2024/03/17 04:47:06;;;;;;;;;25.00;20.75;;;;;-143.90;100.00;76495.56;4873114;28;104199;-72
2024/03/17 04:49:36;;;;;;;;;25.25;17.50;;;;;-143.90;100.00;76495.56;4868928;28;102436;-72
2024/03/17 04:52:02;;;;;;;;;15.00;14.75;;;;;-143.90;100.00;76495.56;4874743;28;101841;-72
2024/03/17 04:54:28;;;;;;;;;15.75;13.00;;;;;-143.90;100.00;76507.97;4879249;28;101752;-72
2024/03/17 04:56:53;;;;;;;;;15.50;14.00;;;;;-143.90;100.00;76512.13;4878122;28;103928;-73
2024/03/17 04:59:19;;;;;;;;;12.75;11.25;;;;;-143.90;100.00;76536.94;4881319;28;101757;-72
2024/03/17 05:01:45;;;;;;;;;15.50;14.00;;;;;-143.90;100.00;76530.72;4862262;28;101858;-72
2024/03/17 05:04:11;;;;;;;;;18.25;18.00;;;;;-143.90;100.00;76536.94;4870969;28;102200;-72
2024/03/17 05:06:36;;;;;;;;;18.25;15.75;;;;;-143.90;100.00;76534.88;4863408;28;104008;-72
2024/03/17 05:09:04;;;;;;;;;13.50;13.00;;;;;-143.90;100.00;76541.06;4869488;28;101533;-72
2024/03/17 05:11:31;;;;;;;;;12.00;9.25;;;;;-143.90;100.00;76543.13;4874130;28;101896;-72
2024/03/17 05:13:57;;;;;;;;;9.00;9.00;;;;;-143.90;100.00;76539.00;4887386;28;101953;-71
2024/03/17 05:16:23;;;;;;;;;12.50;9.50;;;;;-143.90;100.00;76557.63;4879481;28;102140;-72
2024/03/17 05:18:49;;;;;;;;;10.50;9.50;;;;;-143.90;100.00;76561.75;4878748;28;103277;-73
2024/03/17 05:21:15;;;;;;;;;5.00;5.00;;;;;-143.90;100.00;76543.13;4859663;28;102137;-72
2024/03/17 05:23:41;;;;;;;;;8.00;5.75;;;;;-143.90;100.00;76549.34;4878667;28;101885;-72
2024/03/17 05:26:07;;;;;;;;;4.00;4.00;;;;;-143.90;100.00;76547.28;4880127;28;104016;-72
2024/03/17 05:28:32;;;;;;;;;5.25;5.25;;;;;-143.90;100.00;76545.22;4882244;28;101987;-72
2024/03/17 05:30:58;;;;;;;;;6.00;5.00;;;;;-143.90;100.00;76543.13;4878752;28;101769;-71
2024/03/17 05:33:26;;;;;;;;;3.00;3.00;;;;;-143.90;100.00;76528.66;4866397;28;101995;-73
2024/03/17 05:35:59;;;;;;;;;3.00;2.75;;;;;-143.90;100.00;76524.53;4879079;28;104248;-73
2024/03/17 05:38:26;;;;;;;;;11.25;10.50;;;;;-143.90;100.00;76528.66;4874176;28;101706;-71
2024/03/17 05:41:03;;;;;;;;;6.75;6.00;;;;;-143.90;100.00;76512.13;4882022;28;101694;-71
2024/03/17 05:43:31;;;;;;;;;11.75;10.00;;;;;-143.90;100.00;76518.31;4883873;28;102051;-71
2024/03/17 05:45:58;;;;;;;;;17.00;12.50;;;;;-143.90;100.00;76514.19;4882966;28;103979;-71
2024/03/17 05:48:26;;;;;;;;;21.50;17.25;;;;;-143.90;100.00;76516.25;4881915;28;101849;-72
2024/03/17 05:50:52;;;;;;;;;18.00;16.00;;;;;-143.90;100.00;76524.53;4881583;28;101412;-72
2024/03/17 05:53:19;;;;;;;;;14.00;12.00;;;;;-143.90;100.00;76507.97;4862600;28;104937;-72
2024/03/17 05:55:46;;;;;;;;;11.00;10.50;;;;;-143.90;100.00;76512.13;4878757;28;108358;-72
2024/03/17 05:58:11;;;;;;;;;11.00;10.50;;;;;-143.90;100.00;76505.91;4879388;28;103266;-72
2024/03/17 06:00:40;;;;;;;;;11.00;7.50;;;;;-143.90;100.00;76503.84;4889411;28;101545;-73
2024/03/17 06:03:06;;;;;;;;;7.00;5.25;;;;;-143.90;100.00;76499.72;4888512;28;102204;-72
2024/03/17 06:05:34;;;;;;;;;5.75;5.75;;;;;-143.90;100.00;76491.44;4877801;28;104151;-72
2024/03/17 06:08:02;;;;;;;;;12.25;9.50;;;;;-143.90;100.00;76503.84;4881048;28;102014;-72
2024/03/17 06:10:33;;;;;;;;;8.75;6.50;;;;;-143.90;100.00;76487.31;4894150;28;102172;-71
2024/03/17 06:12:59;;;;;;;;;12.50;10.00;;;;;-143.90;100.00;76499.72;4874184;28;102066;-73
2024/03/17 06:15:26;;;;;;;;;23.50;17.50;;;;;-143.90;100.00;76505.91;4882366;28;104476;-72
2024/03/17 06:17:53;;;;;;;;;23.75;19.00;;;;;-143.90;100.00;76497.63;4864192;28;101878;-73
2024/03/17 06:20:28;;;;;;;;;18.00;18.00;;;;;-143.90;100.00;76497.63;4882998;28;102070;-73
2024/03/17 06:22:54;;;;;;;;;27.50;25.00;;;;;-143.90;100.00;76503.84;4865304;28;102182;-72
2024/03/17 06:25:23;;;;;;;;;23.00;22.00;;;;;-143.90;100.00;76489.38;4874046;28;104608;-73
2024/03/17 06:27:50;;;;;;;;;26.75;20.00;;;;;-143.90;100.00;76479.03;4879554;28;101627;-73
2024/03/17 06:30:16;;;;;;;;;23.50;22.25;;;;;-143.90;100.00;76483.16;4874499;28;103006;-73
2024/03/17 06:32:45;;;;;;;;;24.25;19.00;;;;;-143.90;100.00;76479.03;4884021;28;102728;-72
2024/03/17 06:35:11;;;;;;;;;15.75;12.75;;;;;-143.90;100.00;76474.91;4872725;28;104274;-73
2024/03/17 06:37:38;;;;;;;;;12.50;10.75;;;;;-143.90;100.00;76476.97;4881240;28;101622;-72
2024/03/17 06:40:05;;;;;;;;;11.00;10.50;;;;;-143.90;100.00;76481.09;4869812;28;102015;-72
2024/03/17 06:42:31;;;;;;;;;8.50;7.75;;;;;-143.90;100.00;76458.34;4877294;28;101570;-73
2024/03/17 06:44:58;;;;;;;;;15.25;14.50;;;;;-143.90;100.00;76466.63;4877934;28;104389;-74
2024/03/17 06:47:25;;;;;;;;;17.50;12.00;;;;;-143.90;100.00;76470.75;4873618;28;102072;-71
2024/03/17 06:49:51;;;;;;;;;9.50;7.00;;;;;-143.90;100.00;76483.16;4872440;28;101605;-73
2024/03/17 06:52:16;;;;;;;;;11.75;10.75;;;;;-143.90;100.00;76493.50;4882298;28;102038;-72
2024/03/17 06:54:43;;;;;;;;;14.50;10.00;;;;;-143.90;100.00;76470.75;4881095;28;103923;-72
2024/03/17 06:57:08;;;;;;;;;16.75;14.50;;;;;-143.90;100.00;76454.22;4871158;28;104052;-72
2024/03/17 06:59:34;;;;;;;;;10.25;9.00;;;;;-143.90;100.00;76460.41;4882575;28;102833;-72
2024/03/17 07:02:01;;;;;;;;;20.00;17.50;;;;;-143.90;100.00;76462.47;4896683;28;102683;-73
2024/03/17 07:04:26;;;;;;;;;13.75;12.50;;;;;-143.90;100.00;76445.94;4882920;28;102892;-73
2024/03/17 07:06:52;;;;;;;;;18.25;15.50;;;;;-143.90;100.00;76437.66;4878047;28;101856;-72
2024/03/17 07:09:18;;;;;;;;;21.25;17.00;;;;;-143.90;100.00;76425.25;4877547;28;103102;-73
2024/03/17 07:11:46;;;;;;;;;15.50;15.00;;;;;-143.90;100.00;76396.31;4858804;28;102342;-72
2024/03/17 07:14:11;;;;;;;;;15.50;15.00;;;;;-143.90;100.00;76377.69;4878649;28;104198;-72
2024/03/17 07:16:37;;;;;;;;;19.25;16.25;;;;;-143.90;100.00;76417.00;4878611;28;102360;-73
2024/03/17 07:19:04;;;;;;;;;10.00;8.50;;;;;-143.90;100.00;76425.25;4873543;28;102473;-72
2024/03/17 07:21:31;;;;;;;;;15.00;15.00;;;;;-143.90;100.00;76460.41;4881006;28;101519;-71
2024/03/17 07:23:59;;;;;;;;;14.50;12.75;;;;;-143.90;100.00;76429.41;4860690;28;103963;-71
2024/03/17 07:26:25;;;;;;;;;17.50;15.00;;;;;-143.90;100.00;76425.25;4880840;28;102568;-73
2024/03/17 07:28:51;;;;;;;;;14.25;13.00;;;;;-143.90;100.00;76379.75;4884985;28;101957;-73
2024/03/17 07:31:16;;;;;;;;;19.50;16.00;;;;;-143.90;100.00;76394.25;4861014;28;102045;-72
2024/03/17 07:33:42;;;;;;;;;22.25;19.75;;;;;-143.90;100.00;76425.25;4880977;28;103991;-73
2024/03/17 07:36:10;;;;;;;;;16.25;15.25;;;;;-143.90;100.00;76412.84;4860095;28;101620;-71
2024/03/17 07:38:36;;;;;;;;;17.75;15.25;;;;;-143.90;100.00;76404.56;4880714;28;101897;-72
2024/03/17 07:41:04;;;;;;;;;15.00;11.50;;;;;-143.90;100.00;76412.84;4888743;28;104828;-72
2024/03/17 07:43:37;;;;;;;;;12.00;11.75;;;;;-143.90;100.00;76406.66;4861307;28;104215;-72
2024/03/17 07:46:05;;;;;;;;;12.75;11.50;;;;;-143.90;100.00;76404.56;4877179;28;103326;-71
2024/03/17 07:48:32;;;;;;;;;12.75;11.75;;;;;-143.90;100.00;76402.50;4870625;28;102274;-71
2024/03/17 07:51:02;;;;;;;;;14.75;13.00;;;;;-143.90;100.00;76392.16;4856706;28;101875;-71
2024/03/17 07:53:27;;;;;;;;;15.50;11.50;;;;;-143.90;100.00;76369.41;4875473;28;104166;-73
2024/03/17 07:56:01;;;;;;;;;23.25;17.75;;;;;-143.90;100.00;76361.16;4880373;28;101620;-71
2024/03/17 07:58:27;;;;;;;;;27.50;22.00;;;;;-143.90;100.00;76406.66;4880033;28;101654;-72
2024/03/17 08:00:59;;;;;;;;;14.50;14.50;;;;;-143.90;100.00;76429.41;4881081;28;102124;-72
2024/03/17 08:03:29;;;;;;;;;13.50;11.75;;;;;-143.90;100.00;76400.44;4873957;28;104932;-71
2024/03/17 08:05:55;;;;;;;;;19.00;12.50;;;;;-143.90;100.00;76429.41;4874369;28;102168;-72
2024/03/17 08:08:21;;;;;;;;;15.50;15.00;;;;;-143.90;100.00;76400.44;4876964;28;101832;-72
2024/03/17 08:10:48;;;;;;;;;16.25;12.75;;;;;-143.90;100.00;76371.50;4866150;28;102035;-73
2024/03/17 08:13:16;;;;;;;;;20.50;17.25;;;;;-143.90;100.00;76334.25;4869131;28;104036;-73
2024/03/17 08:15:45;;;;;;;;;17.50;13.75;;;;;-143.90;100.00;76299.09;4882994;28;101635;-72
2024/03/17 08:18:12;;;;;;;;;20.00;16.50;;;;;-143.90;100.00;76321.84;4875645;28;102566;-71
2024/03/17 08:20:43;;;;;;;;;13.00;12.25;;;;;-143.90;100.00;76338.41;4886894;28;102174;-72
2024/03/17 08:23:10;;;;;;;;;17.25;14.75;;;;;-143.90;100.00;76330.13;4868809;28;103269;-72
2024/03/17 08:25:36;;;;;;;;;11.00;11.00;;;;;-143.90;100.00;76390.09;4894274;28;101814;-72
2024/03/17 08:28:02;;;;;;;;;15.00;12.00;;;;;-143.90;100.00;76361.16;4878851;28;102657;-73
2024/03/17 08:30:30;;;;;;;;;16.00;12.75;;;;;-143.90;100.00;76330.13;4866096;28;101669;-72
2024/03/17 08:32:56;;;;;;;;;15.75;12.75;;;;;-143.90;100.00;76294.97;4874818;28;104011;-73
2024/03/17 08:35:22;;;;;;;;;17.75;15.25;;;;;-143.90;100.00;76313.59;4869878;28;103007;-72
2024/03/17 08:37:48;;;;;;;;;12.50;11.25;;;;;-143.90;100.00;76311.53;4875793;28;103655;-71
2024/03/17 08:40:14;;;;;;;;;12.50;12.00;;;;;-143.90;100.00;76286.69;4878239;28;102867;-73
2024/03/17 08:42:40;;;;;;;;;11.00;11.00;;;;;-143.90;100.00;76268.09;4886802;28;104383;-70
2024/03/17 08:45:06;;;;;;;;;12.75;10.50;;;;;-143.90;100.00;76257.75;4870744;28;101917;-71
2024/03/17 08:47:32;;;;;;;;;8.00;7.25;;;;;-143.90;100.00;76214.31;4871035;28;101882;-72
2024/03/17 08:50:03;;;;;;;;;13.75;11.75;;;;;-143.90;77.17;76226.72;4872521;28;101918;-72
2024/03/17 08:52:31;;;;;;;;;11.00;8.75;;;;;-143.90;76.61;76214.31;4880715;28;104055;-72
2024/03/17 08:54:58;;;;;;;;;9.50;7.50;;;;;-143.90;74.75;76232.94;4876143;28;101784;-71
2024/03/17 08:57:24;;;;;;;;;7.25;7.00;;;;;-143.90;72.46;76259.81;4855576;28;102604;-71
2024/03/17 08:59:53;;;;;;;;;6.75;6.00;;;;;-143.90;68.91;76278.44;4883531;28;101536;-71
2024/03/17 09:02:19;;;;;;;;;6.25;5.50;;;;;-143.90;70.10;76226.72;4889822;28;108497;-71
2024/03/17 09:04:45;;;;;;;;;7.00;6.00;;;;;-143.90;65.66;76263.97;4875133;28;101938;-70
2024/03/17 09:07:11;;;;;;;;;10.00;9.00;;;;;-143.90;64.02;76288.78;4872221;28;102056;-72
2024/03/17 09:09:36;;;;;;;;;8.00;7.50;;;;;-143.90;64.40;76290.84;4881307;28;102089;-72
2024/03/17 09:12:03;;;;;;;;;7.75;6.00;;;;;-143.90;64.87;76263.97;4874629;28;104292;-71
2024/03/17 09:14:29;;;;;;;;;6.00;6.00;;;;;-143.90;63.85;76288.78;4876749;28;102224;-72
2024/03/17 09:16:58;;;;;;;;;7.25;5.75;;;;;-143.90;65.64;76288.78;4872216;28;103641;-74
2024/03/17 09:19:23;;;;;;;;;7.25;6.25;;;;;-143.90;65.08;76303.25;4875843;28;103166;-73
2024/03/17 09:21:49;;;;;;;;;6.75;6.75;;;;;-143.90;64.54;76286.69;4879888;28;107008;-72
2024/03/17 09:24:15;;;;;;;;;7.00;6.00;;;;;-143.90;65.49;76251.53;4877574;28;101655;-73
2024/03/17 09:26:40;;;;;;;;;12.00;8.50;;;;;-143.90;66.38;76259.81;4870388;28;101864;-72
2024/03/17 09:29:06;;;;;;;;;1.00;0.00;;;;;-143.90;64.90;76243.28;4868812;28;101910;-71
2024/03/17 09:31:35;;;;;;;;;8.75;6.25;;;;;-143.90;64.07;76201.91;4892674;28;102953;-72
2024/03/17 09:34:04;;;;;;;;;4.50;3.75;;;;;-143.90;63.33;76230.88;4878294;28;101759;-71
2024/03/17 09:36:31;;;;;;;;;0.00;0.00;;;;;-143.90;62.13;76247.41;4877356;28;102039;-72
2024/03/17 09:38:56;;;;;;;;;4.00;4.00;;;;;-143.90;60.84;76218.47;4879115;28;102155;-72
2024/03/17 09:41:28;;;;;;;;;5.75;4.50;;;;;-143.90;60.41;76181.25;4867284;28;104436;-71
2024/03/17 09:43:55;;;;;;;;;4.00;4.00;;;;;-143.90;61.23;76185.38;4872727;28;103027;-71
2024/03/17 09:46:26;;;;;;;;;7.25;6.50;;;;;-143.90;59.84;76168.81;4871536;28;102079;-72
2024/03/17 09:48:52;;;;;;;;;8.75;8.00;;;;;-143.90;60.09;76210.19;4892581;28;101693;-73
2024/03/17 09:51:23;;;;;;;;;9.50;8.00;;;;;-143.90;60.90;76218.47;4849816;28;103025;-71
2024/03/17 09:53:49;;;;;;;;;6.00;6.00;;;;;-143.90;60.08;76210.19;4877073;28;102064;-73
2024/03/17 09:56:18;;;;;;;;;5.00;3.75;;;;;-143.90;59.10;76185.38;4868094;28;103245;-71
2024/03/17 09:58:48;;;;;;;;;4.00;3.25;;;;;-143.90;58.45;76131.59;4874983;28;103319;-72
2024/03/17 10:01:14;;;;;;;;;4.00;3.00;;;;;-143.90;58.64;76063.38;4852859;28;103667;-72
2024/03/17 10:03:45;;;;;;;;;3.75;3.75;;;;;-143.90;57.75;76028.22;4878736;28;102564;-72
2024/03/17 10:06:15;;;;;;;;;6.50;6.25;;;;;-143.90;58.47;76032.34;4875284;28;102192;-72
2024/03/17 10:08:42;;;;;;;;;7.75;7.00;;;;;-143.90;57.60;76053.03;4871638;28;102042;-72
2024/03/17 10:11:08;;;;;;;;;9.75;7.00;;;;;-143.90;58.58;76042.69;4870362;28;103860;-72
2024/03/17 10:13:34;;;;;;;;;6.00;6.00;;;;;-143.90;57.16;76044.75;4880628;28;103065;-72
2024/03/17 10:16:00;;;;;;;;;11.25;7.75;;;;;-143.90;58.20;76065.44;4880060;28;102522;-72
2024/03/17 10:18:25;;;;;;;;;8.25;8.25;;;;;-143.90;59.25;76150.22;4885816;28;102385;-72
2024/03/17 10:20:56;;;;;;;;;6.50;6.00;;;;;-143.90;60.10;76152.28;4881251;28;104194;-71
2024/03/17 10:23:22;;;;;;;;;8.00;7.50;;;;;-143.90;60.41;76164.69;4875588;28;101745;-71
2024/03/17 10:25:48;;;;;;;;;6.25;4.00;;;;;-143.90;60.18;76191.56;4879032;28;101684;-71
2024/03/17 10:28:15;;;;;;;;;8.00;7.00;;;;;-143.90;59.67;76226.72;4882802;28;102925;-72
2024/03/17 10:30:42;;;;;;;;;6.50;4.50;;;;;-143.90;60.22;76203.97;4881282;28;104024;-72
2024/03/17 10:33:22;;;;;;;;;10.00;7.25;;;;;-143.90;60.93;76135.75;4862081;28;102327;-71
2024/03/17 10:35:48;;;;;;;;;8.00;7.50;;;;;-143.90;59.47;76110.94;4883648;28;101495;-71
2024/03/17 10:38:14;;;;;;;;;8.75;7.00;;;;;-143.90;59.65;76156.41;4866082;28;102142;-72
2024/03/17 10:40:41;;;;;;;;;9.00;9.00;;;;;-143.90;60.66;76185.38;4879765;28;104474;-72
2024/03/17 10:43:07;;;;;;;;;9.75;9.50;;;;;-143.90;60.27;76224.66;4859786;28;103490;-72
2024/03/17 10:45:38;;;;;;;;;10.25;10.25;;;;;-143.90;60.60;76187.44;4876132;28;102103;-72
2024/03/17 10:48:08;;;;;;;;;11.50;9.00;;;;;-143.90;59.46;76214.31;4876038;28;101815;-72
2024/03/17 10:50:38;;;;;;;;;13.50;13.00;;;;;-143.90;61.16;76203.97;4876954;28;104009;-72
2024/03/17 10:53:10;;;;;;;;;14.00;12.75;;;;;-143.90;60.91;76226.72;4871426;28;103293;-71
2024/03/17 10:55:47;;;;;;;;;11.50;9.00;;;;;-143.90;59.30;76193.66;4876974;28;103899;-70